createdAt,value
2023-03-19T00:00:08.598Z,24.40
2023-03-19T00:01:31.462Z,23.50
2023-03-19T00:02:34.870Z,23.50
2023-03-19T00:03:37.731Z,26.90
2023-03-19T00:04:40.565Z,24.20
2023-03-19T00:05:51.673Z,20.90
2023-03-19T00:06:54.847Z,22.50
2023-03-19T00:07:57.641Z,21.80
2023-03-19T00:09:00.683Z,24.50
2023-03-19T00:10:03.616Z,28.00
2023-03-19T00:11:10.699Z,22.40
2023-03-19T00:12:13.597Z,19.40
2023-03-19T00:13:16.818Z,24.30
2023-03-19T00:14:20.149Z,25.30
2023-03-19T00:15:22.954Z,24.80
2023-03-19T00:16:25.861Z,30.40
2023-03-19T00:17:28.689Z,23.60
2023-03-19T00:18:31.833Z,25.30
2023-03-19T00:19:34.683Z,26.40
2023-03-19T00:20:37.405Z,25.70
2023-03-19T00:21:40.618Z,23.70
2023-03-19T00:22:43.365Z,26.00
2023-03-19T00:23:46.478Z,25.20
2023-03-19T00:24:49.302Z,27.70
2023-03-19T00:25:54.651Z,26.30
2023-03-19T00:26:57.792Z,26.40
2023-03-19T00:28:01.650Z,24.50
2023-03-19T00:29:05.713Z,27.10
2023-03-19T00:30:09.154Z,27.80
2023-03-19T00:31:15.297Z,22.00
2023-03-19T00:32:18.299Z,25.00
2023-03-19T00:33:21.354Z,23.80
2023-03-19T00:34:24.274Z,23.90
2023-03-19T00:35:27.228Z,23.70
2023-03-19T00:36:30.392Z,23.90
2023-03-19T00:37:34.459Z,27.30
2023-03-19T00:38:37.864Z,25.90
2023-03-19T00:39:40.601Z,25.80
2023-03-19T00:40:43.841Z,24.90
2023-03-19T00:41:50.697Z,23.20
2023-03-19T00:42:53.782Z,24.30
2023-03-19T00:43:58.044Z,22.30
2023-03-19T00:45:00.997Z,26.40
2023-03-19T00:46:04.799Z,28.10
2023-03-19T00:47:08.957Z,24.20
2023-03-19T00:48:12.539Z,23.50
2023-03-19T00:49:15.462Z,21.50
2023-03-19T00:50:18.313Z,24.70
2023-03-19T00:51:23.570Z,25.80
2023-03-19T00:52:26.433Z,29.20
2023-03-19T00:53:29.244Z,26.10
2023-03-19T00:54:32.512Z,24.70
2023-03-19T00:55:36.130Z,25.80
2023-03-19T00:56:39.135Z,25.10
2023-03-19T00:57:41.910Z,25.80
2023-03-19T00:58:45.546Z,25.60
2023-03-19T00:59:48.377Z,22.70
2023-03-19T01:00:55.098Z,26.80
2023-03-19T01:01:58.244Z,24.90
2023-03-19T01:03:01.551Z,25.40
2023-03-19T01:04:05.787Z,24.20
2023-03-19T01:05:09.666Z,26.30
2023-03-19T01:06:13.321Z,26.30
2023-03-19T01:07:16.266Z,22.90
2023-03-19T01:08:19.612Z,28.60
2023-03-19T01:09:22.982Z,23.90
2023-03-19T01:10:26.523Z,25.20
2023-03-19T01:11:29.718Z,26.10
2023-03-19T01:12:32.516Z,25.10
2023-03-19T01:13:36.123Z,22.80
2023-03-19T01:14:38.938Z,23.90
2023-03-19T01:15:43.655Z,26.60
2023-03-19T01:16:46.587Z,26.00
2023-03-19T01:17:49.710Z,26.80
2023-03-19T01:18:52.851Z,26.60
2023-03-19T01:19:56.491Z,28.00
2023-03-19T01:20:59.827Z,24.20
2023-03-19T01:22:04.552Z,25.40
2023-03-19T01:23:08.636Z,21.80
2023-03-19T01:24:13.147Z,24.40
2023-03-19T01:25:16.601Z,25.20
2023-03-19T01:26:29.686Z,24.40
2023-03-19T01:27:40.918Z,27.90
2023-03-19T01:28:44.649Z,28.20
2023-03-19T01:29:48.233Z,28.90
2023-03-19T01:31:01.948Z,24.20
2023-03-19T01:32:23.309Z,29.50
2023-03-19T01:33:54.569Z,23.50
2023-03-19T01:35:30.292Z,23.70
2023-03-19T01:36:33.455Z,25.40
2023-03-19T01:37:38.463Z,26.90
2023-03-19T01:38:41.229Z,28.00
2023-03-19T01:39:49.144Z,24.60
2023-03-19T01:40:52.341Z,28.50
2023-03-19T01:41:55.545Z,24.40
2023-03-19T01:43:22.190Z,25.40
2023-03-19T01:44:38.468Z,22.90
2023-03-19T01:46:37.119Z,27.70
2023-03-19T01:47:58.484Z,24.70
2023-03-19T01:49:23.549Z,26.00
2023-03-19T01:50:45.491Z,26.80
2023-03-19T01:52:21.583Z,23.40
2023-03-19T01:53:36.497Z,24.60
2023-03-19T01:54:52.626Z,26.30
2023-03-19T01:56:34.865Z,24.00
2023-03-19T01:57:45.124Z,26.60
2023-03-19T01:59:15.453Z,26.80
2023-03-19T02:00:42.606Z,26.90
2023-03-19T02:01:55.103Z,25.60
2023-03-19T02:03:00.849Z,24.80
2023-03-19T02:04:35.814Z,26.60
2023-03-19T02:05:41.436Z,26.60
2023-03-19T02:06:46.799Z,25.30
2023-03-19T02:07:49.636Z,25.20
2023-03-19T02:08:53.056Z,28.30
2023-03-19T02:09:56.570Z,26.30
2023-03-19T02:11:00.484Z,24.20
2023-03-19T02:12:04.471Z,24.40
2023-03-19T02:13:07.530Z,26.30
2023-03-19T02:14:10.492Z,28.70
2023-03-19T02:15:13.524Z,25.30
2023-03-19T02:16:16.533Z,27.40
2023-03-19T02:17:22.818Z,27.30
2023-03-19T02:18:25.757Z,24.00
2023-03-19T02:19:40.709Z,25.40
2023-03-19T02:21:07.479Z,25.90
2023-03-19T02:22:12.054Z,25.70
2023-03-19T02:23:22.913Z,26.30
2023-03-19T02:24:38.755Z,23.80
2023-03-19T02:25:46.248Z,26.10
2023-03-19T02:26:50.766Z,23.70
2023-03-19T02:27:54.166Z,27.90
2023-03-19T02:28:57.220Z,27.70
2023-03-19T02:30:26.166Z,24.50
2023-03-19T02:31:30.099Z,25.40
2023-03-19T02:32:33.091Z,27.70
2023-03-19T02:33:36.507Z,24.20
2023-03-19T02:34:42.278Z,24.70
2023-03-19T02:35:51.977Z,25.90
2023-03-19T02:37:02.526Z,27.60
2023-03-19T02:38:06.044Z,26.60
2023-03-19T02:39:21.142Z,24.70
2023-03-19T02:40:29.458Z,22.80
2023-03-19T02:41:34.441Z,26.30
2023-03-19T02:42:37.888Z,27.30
2023-03-19T02:43:42.191Z,29.00
2023-03-19T02:44:46.284Z,27.30
2023-03-19T02:45:49.608Z,26.00
2023-03-19T02:46:52.387Z,24.00
2023-03-19T02:47:56.080Z,24.60
2023-03-19T02:48:59.123Z,26.50
2023-03-19T02:50:02.204Z,21.50
2023-03-19T02:51:05.838Z,25.10
2023-03-19T02:52:09.253Z,24.10
2023-03-19T02:53:12.144Z,29.90
2023-03-19T02:54:14.922Z,25.40
2023-03-19T02:55:18.624Z,23.40
2023-03-19T02:56:21.459Z,27.90
2023-03-19T02:57:24.584Z,26.30
2023-03-19T02:58:27.342Z,28.00
2023-03-19T02:59:30.535Z,24.30
2023-03-19T03:00:34.299Z,25.30
2023-03-19T03:01:37.498Z,27.30
2023-03-19T03:02:40.740Z,23.20
2023-03-19T03:03:43.561Z,25.30
2023-03-19T03:04:46.513Z,24.20
2023-03-19T03:05:49.262Z,26.00
2023-03-19T03:06:52.179Z,28.70
2023-03-19T03:07:55.040Z,24.70
2023-03-19T03:08:58.026Z,26.80
2023-03-19T03:10:02.203Z,26.70
2023-03-19T03:11:05.323Z,26.50
2023-03-19T03:12:08.635Z,29.60
2023-03-19T03:13:11.494Z,28.20
2023-03-19T03:14:14.328Z,28.20
2023-03-19T03:15:18.005Z,23.50
2023-03-19T03:16:21.739Z,25.50
2023-03-19T03:17:24.854Z,29.80
2023-03-19T03:18:28.003Z,25.70
2023-03-19T03:19:30.965Z,24.90
2023-03-19T03:20:34.341Z,27.00
2023-03-19T03:21:37.634Z,28.90
2023-03-19T03:22:40.917Z,25.50
2023-03-19T03:23:43.801Z,24.70
2023-03-19T03:24:46.611Z,26.00
2023-03-19T03:25:51.413Z,27.10
2023-03-19T03:26:54.295Z,26.50
2023-03-19T03:27:57.119Z,27.90
2023-03-19T03:29:00.245Z,25.30
2023-03-19T03:30:05.556Z,28.60
2023-03-19T03:31:10.514Z,26.40
2023-03-19T03:32:16.077Z,25.60
2023-03-19T03:33:19.087Z,28.70
2023-03-19T03:34:21.971Z,26.10
2023-03-19T03:35:25.586Z,26.10
2023-03-19T03:36:28.887Z,24.60
2023-03-19T03:37:31.898Z,27.60
2023-03-19T03:38:34.714Z,30.60
2023-03-19T03:39:37.864Z,26.80
2023-03-19T03:40:41.873Z,31.80
2023-03-19T03:41:44.883Z,26.10
2023-03-19T03:42:48.095Z,28.40
2023-03-19T03:43:51.094Z,27.40
2023-03-19T03:44:53.880Z,24.80
2023-03-19T03:45:57.003Z,28.40
2023-03-19T03:47:00.448Z,25.60
2023-03-19T03:48:03.411Z,24.10
2023-03-19T03:49:06.251Z,28.50
2023-03-19T03:50:11.106Z,29.10
2023-03-19T03:51:14.706Z,30.20
2023-03-19T03:52:17.882Z,25.90
2023-03-19T03:53:20.892Z,26.20
2023-03-19T03:54:23.753Z,28.90
2023-03-19T03:55:28.269Z,23.90
2023-03-19T03:56:31.475Z,29.20
2023-03-19T03:57:34.805Z,32.80
2023-03-19T03:58:37.924Z,32.70
2023-03-19T03:59:40.985Z,28.30
2023-03-19T04:00:44.115Z,26.10
2023-03-19T04:01:47.199Z,28.60
2023-03-19T04:02:50.877Z,28.00
2023-03-19T04:03:54.440Z,28.00
2023-03-19T04:04:57.854Z,29.00
2023-03-19T04:06:00.849Z,26.30
2023-03-19T04:07:04.020Z,27.50
2023-03-19T04:08:19.469Z,25.00
2023-03-19T04:09:22.456Z,26.40
2023-03-19T04:10:25.274Z,27.80
2023-03-19T04:11:28.109Z,27.50
2023-03-19T04:12:30.872Z,29.30
2023-03-19T04:13:36.793Z,27.20
2023-03-19T04:14:40.350Z,28.20
2023-03-19T04:15:44.012Z,26.30
2023-03-19T04:16:47.568Z,27.90
2023-03-19T04:17:50.492Z,27.90
2023-03-19T04:18:53.922Z,26.90
2023-03-19T04:19:57.269Z,24.60
2023-03-19T04:21:00.165Z,27.60
2023-03-19T04:22:03.630Z,25.70
2023-03-19T04:23:08.344Z,26.90
2023-03-19T04:24:11.601Z,24.80
2023-03-19T04:25:15.424Z,25.10
2023-03-19T04:26:18.432Z,27.40
2023-03-19T04:27:22.102Z,28.00
2023-03-19T04:28:25.410Z,27.40
2023-03-19T04:29:28.748Z,32.50
2023-03-19T04:30:35.125Z,27.80
2023-03-19T04:31:38.334Z,26.60
2023-03-19T04:32:41.538Z,25.90
2023-03-19T04:33:44.637Z,25.90
2023-03-19T04:34:48.519Z,28.40
2023-03-19T04:35:51.830Z,26.40
2023-03-19T04:36:54.644Z,29.80
2023-03-19T04:37:57.483Z,28.10
2023-03-19T04:39:00.642Z,26.40
2023-03-19T04:40:04.348Z,25.80
2023-03-19T04:41:09.004Z,27.00
2023-03-19T04:42:13.056Z,26.80
2023-03-19T04:43:37.445Z,27.60
2023-03-19T04:44:40.786Z,26.00
2023-03-19T04:45:45.341Z,26.20
2023-03-19T04:46:48.588Z,23.50
2023-03-19T04:47:52.207Z,26.50
2023-03-19T04:48:56.111Z,28.30
2023-03-19T04:49:59.520Z,27.60
2023-03-19T04:51:03.746Z,27.50
2023-03-19T04:52:06.716Z,26.50
2023-03-19T04:53:09.577Z,25.70
2023-03-19T04:54:12.690Z,26.60
2023-03-19T04:55:15.596Z,28.10
2023-03-19T04:56:27.823Z,27.70
2023-03-19T04:57:31.128Z,25.30
2023-03-19T04:58:35.274Z,25.80
2023-03-19T04:59:38.646Z,24.10
2023-03-19T05:00:41.453Z,27.70
2023-03-19T05:01:44.434Z,27.70
2023-03-19T05:02:48.424Z,23.70
2023-03-19T05:03:51.553Z,24.60
2023-03-19T05:04:54.503Z,25.30
2023-03-19T05:05:57.574Z,27.00
2023-03-19T05:07:00.905Z,25.20
2023-03-19T05:08:05.021Z,31.60
2023-03-19T05:09:07.997Z,26.00
2023-03-19T05:10:11.330Z,27.50
2023-03-19T05:11:14.733Z,29.60
2023-03-19T05:12:30.749Z,22.80
2023-03-19T05:13:33.942Z,29.00
2023-03-19T05:14:36.709Z,29.00
2023-03-19T05:15:47.588Z,27.60
2023-03-19T05:16:50.412Z,29.40
2023-03-19T05:17:53.514Z,27.90
2023-03-19T05:19:01.055Z,28.30
2023-03-19T05:20:07.346Z,26.70
2023-03-19T05:21:12.334Z,27.70
2023-03-19T05:22:15.658Z,30.30
2023-03-19T05:23:18.515Z,30.00
2023-03-19T05:24:40.453Z,33.40
2023-03-19T05:25:43.925Z,27.80
2023-03-19T05:26:48.676Z,25.60
2023-03-19T05:28:20.685Z,31.60
2023-03-19T05:29:23.747Z,29.70
2023-03-19T05:30:56.537Z,27.80
2023-03-19T05:32:10.673Z,26.10
2023-03-19T05:33:14.468Z,27.80
2023-03-19T05:34:18.169Z,26.80
2023-03-19T05:35:21.107Z,25.70
2023-03-19T05:36:24.172Z,31.30
2023-03-19T05:37:32.607Z,27.90
2023-03-19T05:38:35.919Z,30.10
2023-03-19T05:39:42.619Z,23.50
2023-03-19T05:40:46.219Z,27.90
2023-03-19T05:41:57.024Z,27.20
2023-03-19T05:43:03.339Z,26.60
2023-03-19T05:44:06.855Z,23.60
2023-03-19T05:45:29.351Z,29.10
2023-03-19T05:46:36.410Z,27.40
2023-03-19T05:47:39.751Z,27.90
2023-03-19T05:48:42.495Z,28.20
2023-03-19T05:49:45.600Z,27.50
2023-03-19T05:50:48.700Z,28.90
2023-03-19T05:51:56.483Z,28.90
2023-03-19T05:52:59.659Z,26.40
2023-03-19T05:54:03.164Z,25.40
2023-03-19T05:55:15.690Z,30.30
2023-03-19T05:56:26.209Z,26.20
2023-03-19T05:58:07.840Z,27.30
2023-03-19T05:59:11.016Z,26.90
2023-03-19T06:00:16.393Z,28.00
2023-03-19T06:01:19.416Z,28.20
2023-03-19T06:02:22.701Z,28.30
2023-03-19T06:03:27.232Z,29.50
2023-03-19T06:04:31.235Z,25.60
2023-03-19T06:05:34.294Z,28.50
2023-03-19T06:06:50.753Z,30.00
2023-03-19T06:07:54.770Z,26.30
2023-03-19T06:09:03.910Z,25.60
2023-03-19T06:10:11.877Z,25.90
2023-03-19T06:11:14.852Z,26.20
2023-03-19T06:12:18.199Z,31.10
2023-03-19T06:13:24.128Z,27.20
2023-03-19T06:14:34.184Z,29.70
2023-03-19T06:15:55.837Z,27.80
2023-03-19T06:17:03.179Z,26.90
2023-03-19T06:18:06.101Z,27.10
2023-03-19T06:19:09.113Z,24.80
2023-03-19T06:20:13.140Z,28.20
2023-03-19T06:21:16.987Z,28.00
2023-03-19T06:22:20.022Z,26.40
2023-03-19T06:23:23.135Z,31.40
2023-03-19T06:24:26.011Z,27.70
2023-03-19T06:25:28.911Z,27.00
2023-03-19T06:26:32.238Z,28.60
2023-03-19T06:27:35.305Z,26.40
2023-03-19T06:29:00.814Z,28.80
2023-03-19T06:30:04.116Z,25.10
2023-03-19T06:31:08.323Z,26.80
2023-03-19T06:32:29.555Z,25.60
2023-03-19T06:33:37.205Z,28.10
2023-03-19T06:34:40.213Z,29.40
2023-03-19T06:35:43.300Z,31.90
2023-03-19T06:36:46.595Z,25.80
2023-03-19T06:37:49.404Z,27.20
2023-03-19T06:38:52.474Z,29.40
2023-03-19T06:39:55.314Z,27.40
2023-03-19T06:40:58.184Z,31.40
2023-03-19T06:42:01.790Z,26.00
2023-03-19T06:43:04.640Z,27.50
2023-03-19T06:44:07.494Z,25.60
2023-03-19T06:45:10.639Z,26.10
2023-03-19T06:46:13.527Z,25.10
2023-03-19T06:47:16.364Z,27.80
2023-03-19T06:48:19.464Z,26.90
2023-03-19T06:49:22.232Z,27.70
2023-03-19T06:50:25.044Z,29.70
2023-03-19T06:51:27.956Z,25.30
2023-03-19T06:52:30.815Z,25.50
2023-03-19T06:53:33.939Z,26.30
2023-03-19T06:54:38.454Z,26.80
2023-03-19T06:55:41.645Z,24.90
2023-03-19T06:56:44.537Z,27.70
2023-03-19T06:57:50.861Z,22.70
2023-03-19T06:58:57.210Z,27.70
2023-03-19T06:59:59.988Z,26.20
2023-03-19T07:01:03.087Z,27.60
2023-03-19T07:02:05.851Z,24.30
2023-03-19T07:03:09.745Z,29.60
2023-03-19T07:04:12.643Z,24.90
2023-03-19T07:05:15.719Z,22.70
2023-03-19T07:06:18.592Z,25.20
2023-03-19T07:07:21.348Z,26.90
2023-03-19T07:08:24.155Z,27.60
2023-03-19T07:09:27.301Z,26.00
2023-03-19T07:10:30.290Z,24.80
2023-03-19T07:11:35.717Z,23.30
2023-03-19T07:12:38.725Z,28.60
2023-03-19T07:13:41.627Z,23.60
2023-03-19T07:14:44.389Z,24.70
2023-03-19T07:15:47.326Z,24.90
2023-03-19T07:16:50.273Z,24.50
2023-03-19T07:17:53.045Z,23.10
2023-03-19T07:18:56.888Z,26.70
2023-03-19T07:19:59.734Z,26.40
2023-03-19T07:21:02.890Z,35.70
2023-03-19T07:22:05.868Z,36.40
2023-03-19T07:23:08.617Z,39.90
2023-03-19T07:24:11.627Z,31.90
2023-03-19T07:25:14.432Z,37.10
2023-03-19T07:26:18.379Z,32.50
2023-03-19T07:27:21.212Z,39.80
2023-03-19T07:28:24.434Z,30.00
2023-03-19T07:29:27.176Z,33.80
2023-03-19T07:30:29.917Z,28.30
2023-03-19T07:31:32.758Z,30.50
2023-03-19T07:32:36.098Z,29.20
2023-03-19T07:33:38.871Z,29.80
2023-03-19T07:34:41.767Z,27.00
2023-03-19T07:35:44.584Z,27.40
2023-03-19T07:36:47.489Z,28.20
2023-03-19T07:37:50.313Z,20.20
2023-03-19T07:38:53.160Z,21.80
2023-03-19T07:39:56.452Z,20.00
2023-03-19T07:41:02.653Z,23.10
2023-03-19T07:42:06.633Z,22.60
2023-03-19T07:43:09.446Z,22.70
2023-03-19T07:44:12.202Z,19.90
2023-03-19T07:45:15.004Z,19.20
2023-03-19T07:46:18.169Z,20.40
2023-03-19T07:47:29.106Z,20.10
2023-03-19T07:48:32.842Z,20.90
2023-03-19T07:49:35.640Z,18.10
2023-03-19T07:50:38.514Z,21.80
2023-03-19T07:51:41.282Z,18.70
2023-03-19T07:52:47.283Z,18.70
2023-03-19T07:53:50.019Z,21.30
2023-03-19T07:54:53.278Z,18.90
2023-03-19T07:55:55.988Z,18.90
2023-03-19T07:56:58.868Z,18.50
2023-03-19T07:58:02.077Z,16.00
2023-03-19T07:59:04.856Z,18.10
2023-03-19T08:00:08.379Z,17.60
2023-03-19T08:01:15.676Z,13.90
2023-03-19T08:02:21.574Z,15.20
2023-03-19T08:03:25.678Z,14.30
2023-03-19T08:04:28.519Z,18.30
2023-03-19T08:05:31.405Z,18.40
2023-03-19T08:06:34.361Z,16.20
2023-03-19T08:07:37.360Z,16.10
2023-03-19T08:08:40.295Z,16.00
2023-03-19T08:09:43.617Z,17.50
2023-03-19T08:10:48.084Z,13.90
2023-03-19T08:11:51.412Z,14.20
2023-03-19T08:12:54.265Z,18.40
2023-03-19T08:13:57.109Z,18.20
2023-03-19T08:15:00.296Z,17.40
2023-03-19T08:16:03.047Z,15.00
2023-03-19T08:17:06.446Z,15.20
2023-03-19T08:18:09.252Z,16.50
2023-03-19T08:19:12.384Z,15.60
2023-03-19T08:20:16.884Z,14.70
2023-03-19T08:21:19.726Z,13.80
2023-03-19T08:22:22.444Z,14.60
2023-03-19T08:23:25.345Z,15.10
2023-03-19T08:24:28.382Z,13.20
2023-03-19T08:25:32.686Z,14.40
2023-03-19T08:26:35.863Z,15.30
2023-03-19T08:27:38.761Z,14.70
2023-03-19T08:28:41.695Z,15.20
2023-03-19T08:29:44.474Z,17.20
2023-03-19T08:30:47.280Z,13.60
2023-03-19T08:31:49.996Z,12.90
2023-03-19T08:32:53.015Z,14.40
2023-03-19T08:33:56.475Z,16.10
2023-03-19T08:34:59.313Z,12.90
2023-03-19T08:36:10.740Z,16.10
2023-03-19T08:37:13.786Z,12.00
2023-03-19T08:38:16.796Z,14.70
2023-03-19T08:39:19.529Z,14.50
2023-03-19T08:40:23.198Z,17.00
2023-03-19T08:41:26.047Z,15.40
2023-03-19T08:42:29.257Z,14.10
2023-03-19T08:43:33.523Z,15.60
2023-03-19T08:44:36.245Z,14.70
2023-03-19T08:45:38.999Z,13.60
2023-03-19T08:46:42.747Z,15.50
2023-03-19T08:47:45.835Z,13.70
2023-03-19T08:48:48.571Z,16.30
2023-03-19T08:49:52.017Z,12.60
2023-03-19T08:51:00.891Z,11.60
2023-03-19T08:52:04.559Z,14.50
2023-03-19T08:53:07.343Z,13.70
2023-03-19T08:54:11.289Z,16.30
2023-03-19T08:55:14.162Z,13.60
2023-03-19T08:56:16.998Z,13.40
2023-03-19T08:57:19.831Z,13.30
2023-03-19T08:58:23.596Z,12.90
2023-03-19T08:59:27.372Z,14.30
2023-03-19T09:00:30.169Z,13.60
2023-03-19T09:01:32.981Z,15.90
2023-03-19T09:02:36.072Z,13.90
2023-03-19T09:03:40.036Z,14.60
2023-03-19T09:04:44.003Z,13.90
2023-03-19T09:05:46.861Z,13.10
2023-03-19T09:06:52.906Z,13.10
2023-03-19T09:07:55.716Z,13.90
2023-03-19T09:08:58.499Z,15.00
2023-03-19T09:10:01.261Z,13.40
2023-03-19T09:11:05.740Z,15.20
2023-03-19T09:12:10.843Z,13.20
2023-03-19T09:13:13.586Z,11.00
2023-03-19T09:14:17.961Z,14.90
2023-03-19T09:15:20.886Z,14.50
2023-03-19T09:16:23.816Z,12.90
2023-03-19T09:17:26.603Z,11.70
2023-03-19T09:18:29.742Z,15.80
2023-03-19T09:19:33.409Z,12.80
2023-03-19T09:20:36.627Z,14.90
2023-03-19T09:21:39.630Z,11.50
2023-03-19T09:22:42.402Z,15.10
2023-03-19T09:23:45.230Z,14.00
2023-03-19T09:24:48.044Z,12.90
2023-03-19T09:25:51.329Z,10.70
2023-03-19T09:26:54.183Z,11.00
2023-03-19T09:27:56.968Z,12.00
2023-03-19T09:28:59.913Z,12.30
2023-03-19T09:30:03.075Z,11.70
2023-03-19T09:31:09.866Z,13.00
2023-03-19T09:32:12.792Z,14.00
2023-03-19T09:33:17.171Z,13.10
2023-03-19T09:34:20.200Z,12.10
2023-03-19T09:35:23.198Z,15.00
2023-03-19T09:36:26.638Z,12.90
2023-03-19T09:37:29.438Z,12.70
2023-03-19T09:38:32.175Z,13.00
2023-03-19T09:39:35.197Z,11.50
2023-03-19T09:40:42.914Z,12.00
2023-03-19T09:42:07.336Z,16.10
2023-03-19T09:43:34.564Z,11.60
2023-03-19T09:44:39.871Z,15.10
2023-03-19T09:45:42.644Z,13.10
2023-03-19T09:46:56.236Z,14.30
2023-03-19T09:48:13.648Z,14.50
2023-03-19T09:49:26.120Z,14.80
2023-03-19T09:50:29.688Z,11.50
2023-03-19T09:51:58.358Z,11.10
2023-03-19T09:53:23.920Z,15.10
2023-03-19T09:54:42.781Z,10.50
2023-03-19T09:55:51.484Z,12.30
2023-03-19T09:56:54.936Z,11.10
2023-03-19T09:57:59.015Z,13.50
2023-03-19T09:59:03.292Z,16.10
2023-03-19T10:00:24.083Z,11.30
2023-03-19T10:01:34.402Z,13.40
2023-03-19T10:02:43.165Z,11.80
2023-03-19T10:04:20.115Z,14.50
2023-03-19T10:05:28.921Z,10.80
2023-03-19T10:06:37.296Z,16.90
2023-03-19T10:08:06.006Z,13.10
2023-03-19T10:09:27.689Z,12.20
2023-03-19T10:10:45.766Z,13.60
2023-03-19T10:11:56.268Z,12.80
2023-03-19T10:13:22.024Z,13.70
2023-03-19T10:14:43.398Z,13.60
2023-03-19T10:15:47.311Z,12.00
2023-03-19T10:16:54.685Z,11.70
2023-03-19T10:18:04.232Z,11.30
2023-03-19T10:20:22.969Z,11.90
2023-03-19T10:21:29.859Z,9.80
2023-03-19T10:22:39.985Z,11.00
2023-03-19T10:24:16.679Z,9.70
2023-03-19T10:25:23.114Z,14.00
2023-03-19T10:26:31.350Z,12.60
2023-03-19T10:27:34.241Z,11.00
2023-03-19T10:28:37.680Z,11.20
2023-03-19T10:29:43.660Z,9.90
2023-03-19T10:31:07.778Z,11.00
2023-03-19T10:32:21.267Z,11.20
2023-03-19T10:33:29.072Z,14.20
2023-03-19T10:34:33.075Z,11.30
2023-03-19T10:35:44.482Z,11.00
2023-03-19T10:36:47.274Z,11.40
2023-03-19T10:37:50.975Z,11.90
2023-03-19T10:38:54.946Z,11.30
2023-03-19T10:40:00.323Z,10.80
2023-03-19T10:41:54.402Z,10.70
2023-03-19T10:43:22.791Z,11.90
2023-03-19T10:44:30.580Z,8.80
2023-03-19T10:45:37.891Z,8.50
2023-03-19T10:46:41.854Z,8.50
2023-03-19T10:47:44.912Z,9.40
2023-03-19T10:48:47.899Z,9.80
2023-03-19T10:49:51.091Z,9.50
2023-03-19T10:51:06.017Z,11.40
2023-03-19T10:52:38.200Z,13.20
2023-03-19T10:53:41.554Z,10.10
2023-03-19T10:54:46.016Z,9.40
2023-03-19T10:56:01.490Z,10.80
2023-03-19T10:57:04.424Z,10.50
2023-03-19T10:58:17.009Z,12.70
2023-03-19T10:59:27.021Z,10.40
2023-03-19T11:00:33.400Z,11.00
2023-03-19T11:01:40.737Z,9.90
2023-03-19T11:02:49.483Z,11.50
2023-03-19T11:03:57.403Z,9.30
2023-03-19T11:05:29.311Z,11.00
2023-03-19T11:06:36.130Z,10.20
2023-03-19T11:07:39.202Z,9.60
2023-03-19T11:08:42.920Z,10.30
2023-03-19T11:09:50.306Z,10.40
2023-03-19T11:10:53.420Z,11.80
2023-03-19T11:11:59.072Z,9.10
2023-03-19T11:13:24.632Z,8.70
2023-03-19T11:14:38.444Z,9.00
2023-03-19T11:15:41.431Z,8.80
2023-03-19T11:17:17.347Z,9.80
2023-03-19T11:18:27.690Z,8.70
2023-03-19T11:19:41.723Z,11.70
2023-03-19T11:20:58.405Z,15.90
2023-03-19T11:22:19.641Z,10.10
2023-03-19T11:23:31.632Z,8.60
2023-03-19T11:24:41.144Z,13.90
2023-03-19T11:26:57.440Z,15.40
2023-03-19T11:28:26.741Z,11.10
2023-03-19T11:29:29.911Z,10.60
2023-03-19T11:31:00.267Z,11.30
2023-03-19T11:32:27.638Z,9.50
2023-03-19T11:33:45.151Z,6.80
2023-03-19T11:35:01.572Z,8.60
2023-03-19T11:36:33.881Z,9.70
2023-03-19T11:37:57.351Z,8.10
2023-03-19T11:39:12.378Z,8.70
2023-03-19T11:40:25.390Z,9.10
2023-03-19T11:42:05.876Z,11.40
2023-03-19T11:43:17.935Z,13.20
2023-03-19T11:44:40.326Z,13.70
2023-03-19T11:46:12.959Z,11.50
2023-03-19T11:47:32.467Z,10.30
2023-03-19T11:48:46.246Z,11.80
2023-03-19T11:49:53.197Z,12.80
2023-03-19T11:51:32.405Z,18.00
2023-03-19T11:53:19.940Z,23.40
2023-03-19T11:54:37.032Z,21.80
2023-03-19T11:55:58.597Z,14.70
2023-03-19T11:57:08.804Z,11.10
2023-03-19T11:58:24.372Z,9.90
2023-03-19T11:59:43.559Z,13.00
2023-03-19T12:00:55.157Z,8.70
2023-03-19T12:02:17.116Z,9.60
2023-03-19T12:03:48.167Z,9.60
2023-03-19T12:05:12.782Z,9.80
2023-03-19T12:06:48.673Z,12.50
2023-03-19T12:08:05.799Z,9.70
2023-03-19T12:09:23.589Z,9.40
2023-03-19T12:10:30.302Z,9.40
2023-03-19T12:11:36.003Z,9.40
2023-03-19T12:13:06.259Z,9.30
2023-03-19T12:14:27.931Z,9.80
2023-03-19T12:15:46.953Z,18.80
2023-03-19T12:17:07.888Z,15.30
2023-03-19T12:18:32.043Z,10.80
2023-03-19T12:19:50.777Z,12.00
2023-03-19T12:21:05.331Z,12.10
2023-03-19T12:22:45.443Z,8.90
2023-03-19T12:24:18.315Z,8.50
2023-03-19T12:26:06.155Z,8.50
2023-03-19T12:27:28.104Z,11.40
2023-03-19T12:28:39.614Z,10.50
2023-03-19T12:29:46.631Z,10.00
2023-03-19T12:30:58.145Z,9.40
2023-03-19T12:32:00.938Z,9.90
2023-03-19T12:33:18.758Z,11.30
2023-03-19T12:34:49.240Z,7.90
2023-03-19T12:35:56.277Z,9.50
2023-03-19T12:37:14.332Z,7.90
2023-03-19T12:38:24.285Z,9.60
2023-03-19T12:39:34.647Z,10.80
2023-03-19T12:40:41.828Z,10.40
2023-03-19T12:41:48.446Z,8.30
2023-03-19T12:42:51.977Z,10.10
2023-03-19T12:44:19.237Z,9.50
2023-03-19T12:45:41.171Z,8.50
2023-03-19T12:46:51.930Z,12.10
2023-03-19T12:48:00.903Z,10.00
2023-03-19T12:49:11.240Z,9.40
2023-03-19T12:50:17.444Z,10.10
2023-03-19T12:51:24.302Z,8.70
2023-03-19T12:52:31.291Z,10.90
2023-03-19T12:53:40.462Z,7.70
2023-03-19T12:54:55.444Z,11.20
2023-03-19T12:56:04.537Z,8.40
2023-03-19T12:57:10.758Z,10.40
2023-03-19T12:58:31.374Z,10.00
2023-03-19T12:59:53.584Z,11.60
2023-03-19T13:01:16.147Z,11.90
2023-03-19T13:02:27.289Z,7.30
2023-03-19T13:03:48.779Z,9.20
2023-03-19T13:04:57.045Z,9.20
2023-03-19T13:06:16.852Z,10.10
2023-03-19T13:07:26.834Z,8.60
2023-03-19T13:08:37.803Z,7.80
2023-03-19T13:09:59.167Z,10.00
2023-03-19T13:11:10.493Z,9.50
2023-03-19T13:12:19.123Z,8.60
2023-03-19T13:13:37.366Z,8.20
2023-03-19T13:14:52.566Z,12.30
2023-03-19T13:16:02.633Z,8.40
2023-03-19T13:17:41.586Z,9.30
2023-03-19T13:18:59.076Z,9.70
2023-03-19T13:20:14.203Z,11.40
2023-03-19T13:21:30.234Z,9.30
2023-03-19T13:22:37.880Z,10.00
2023-03-19T13:23:43.077Z,7.10
2023-03-19T13:24:47.001Z,11.60
2023-03-19T13:25:52.974Z,11.60
2023-03-19T13:26:59.344Z,12.40
2023-03-19T13:28:06.710Z,10.70
2023-03-19T13:29:19.121Z,10.80
2023-03-19T13:30:23.284Z,12.60
2023-03-19T13:31:27.908Z,10.30
2023-03-19T13:32:36.761Z,11.70
2023-03-19T13:33:40.281Z,11.90
2023-03-19T13:34:43.076Z,10.80
2023-03-19T13:35:50.763Z,10.00
2023-03-19T13:37:05.575Z,10.70
2023-03-19T13:38:19.662Z,10.60
2023-03-19T13:39:28.637Z,7.90
2023-03-19T13:40:50.931Z,8.30
2023-03-19T13:42:17.498Z,10.30
2023-03-19T13:43:42.978Z,13.50
2023-03-19T13:45:03.578Z,12.60
2023-03-19T13:46:09.759Z,10.90
2023-03-19T13:47:28.829Z,9.60
2023-03-19T13:48:39.222Z,11.40
2023-03-19T13:50:02.351Z,8.40
2023-03-19T13:51:23.640Z,9.60
2023-03-19T13:52:26.462Z,9.70
2023-03-19T13:53:29.210Z,9.40
2023-03-19T13:54:37.253Z,9.60
2023-03-19T13:56:26.296Z,7.80
2023-03-19T13:57:36.026Z,7.40
2023-03-19T13:58:53.074Z,9.10
2023-03-19T13:59:56.581Z,8.60
2023-03-19T14:01:00.514Z,8.90
2023-03-19T14:02:21.388Z,12.50
2023-03-19T14:03:26.639Z,9.40
2023-03-19T14:04:34.585Z,9.60
2023-03-19T14:05:37.716Z,9.10
2023-03-19T14:06:47.321Z,9.00
2023-03-19T14:07:55.318Z,8.90
2023-03-19T14:08:59.145Z,7.80
2023-03-19T14:10:02.366Z,10.70
2023-03-19T14:11:07.689Z,9.40
2023-03-19T14:12:23.088Z,10.60
2023-03-19T14:13:37.371Z,11.00
2023-03-19T14:14:47.529Z,9.40
2023-03-19T14:15:51.944Z,8.80
2023-03-19T14:16:55.036Z,9.70
2023-03-19T14:18:02.030Z,11.00
2023-03-19T14:19:16.813Z,9.80
2023-03-19T14:20:24.621Z,9.60
2023-03-19T14:22:00.110Z,11.60
2023-03-19T14:23:09.160Z,8.20
2023-03-19T14:26:01.415Z,9.20
2023-03-19T14:27:29.580Z,12.10
2023-03-19T14:28:57.047Z,9.20
2023-03-19T14:30:09.376Z,9.90
2023-03-19T14:31:30.041Z,8.30
2023-03-19T14:32:40.940Z,8.60
2023-03-19T14:33:51.865Z,7.30
2023-03-19T14:34:56.185Z,8.30
2023-03-19T14:36:03.148Z,8.40
2023-03-19T14:37:16.646Z,11.80
2023-03-19T14:38:45.783Z,10.70
2023-03-19T14:40:04.424Z,9.60
2023-03-19T14:41:16.340Z,12.60
2023-03-19T14:42:34.615Z,8.90
2023-03-19T14:44:09.041Z,8.60
2023-03-19T14:45:35.020Z,11.10